Time;durP1;ratioP1;P1;durP2;ratioP2;P2;SDS_P1;SDS_P2;PMS_P1;PMS_P2;Temp;Humidity;BMP_temperature;BMP_pressure;BME280_temperature;BME280_humidity;BME280_pressure;Samples;Min_cycle;Max_cycle;Signal;HPM_P1;HPM_P2
2022/01/20 00:00:43;;;;;;;6.00;5.40;;;;;;;3.69;100.00;96841.53;4964359;28;20073;-51
2022/01/20 00:03:17;;;;;;;9.55;5.45;;;;;;;3.75;100.00;96836.78;4970140;28;20091;-46
2022/01/20 00:06:30;;;;;;;6.97;5.25;;;;;;;3.64;100.00;96836.59;4985441;28;20110;-54
2022/01/20 00:09:06;;;;;;;6.25;5.15;;;;;;;3.79;100.00;96838.28;4974662;28;20066;-48
2022/01/20 00:28:15;;;;;;;6.10;5.50;;;;;;;3.73;100.00;96854.28;4969265;28;20425;-54
2022/01/20 00:30:49;;;;;;;5.47;4.90;;;;;;;3.70;100.00;96848.44;4973529;28;20062;-48
2022/01/20 00:33:32;;;;;;;5.95;5.32;;;;;;;3.70;100.00;96844.03;4976718;28;20066;-54
2022/01/20 00:38:48;;;;;;;6.18;4.72;;;;;;;3.62;100.00;96848.06;4967244;28;20666;-52
2022/01/20 00:41:17;;;;;;;6.78;5.70;;;;;;;3.73;100.00;96846.47;4970027;28;20572;-50
2022/01/20 00:43:45;;;;;;;5.82;5.15;;;;;;;3.77;100.00;96865.38;4979417;28;20089;-48
2022/01/20 00:46:14;;;;;;;6.18;4.82;;;;;;;3.63;100.00;96853.16;4971235;28;20098;-52
2022/01/20 00:48:43;;;;;;;6.28;4.57;;;;;;;3.68;100.00;96858.97;4970576;28;20070;-50
2022/01/20 00:51:13;;;;;;;8.00;5.10;;;;;;;3.79;100.00;96860.91;4976727;28;20085;-50
2022/01/20 00:53:44;;;;;;;5.75;4.68;;;;;;;3.79;100.00;96853.94;4968405;28;20082;-52
2022/01/20 00:56:13;;;;;;;5.70;4.40;;;;;;;3.71;100.00;96860.53;4972370;28;20073;-49
2022/01/20 00:58:41;;;;;;;5.68;4.88;;;;;;;3.75;100.00;96864.63;4967602;28;20581;-49
2022/01/20 01:01:10;;;;;;;6.15;5.20;;;;;;;3.77;100.00;96870.59;4967804;28;20078;-53
2022/01/20 01:03:38;;;;;;;5.45;4.95;;;;;;;3.78;100.00;96865.28;4955468;28;20122;-50
2022/01/20 01:06:18;;;;;;;5.60;5.07;;;;;;;3.75;100.00;96865.47;4962860;28;20080;-48
2022/01/20 01:08:49;;;;;;;5.05;4.57;;;;;;;3.86;100.00;96867.44;4967189;28;20537;-51
2022/01/20 01:11:18;;;;;;;8.63;5.40;;;;;;;3.94;100.00;96865.19;4967958;28;20555;-51
2022/01/20 01:13:46;;;;;;;5.15;4.43;;;;;;;3.85;100.00;96864.91;4968577;28;20086;-53
2022/01/20 01:16:17;;;;;;;7.15;5.13;;;;;;;3.73;100.00;96850.84;4971090;28;20585;-52
2022/01/20 01:21:42;;;;;;;5.20;4.70;;;;;;;3.64;100.00;96852.22;4967572;28;20086;-53
2022/01/20 01:24:12;;;;;;;5.65;4.80;;;;;;;3.72;100.00;96859.63;4966108;28;20597;-51
2022/01/20 01:26:41;;;;;;;6.20;5.60;;;;;;;3.73;100.00;96861.28;4966270;28;20534;-55
2022/01/20 01:29:26;;;;;;;7.43;5.88;;;;;;;3.83;100.00;96858.97;4969546;28;20535;-51
2022/01/20 01:31:54;;;;;;;6.07;4.95;;;;;;;3.74;100.00;96857.72;4966917;28;20081;-48
2022/01/20 01:34:27;;;;;;;6.25;4.88;;;;;;;3.77;100.00;96870.59;4968893;28;20498;-50
2022/01/20 01:37:05;;;;;;;5.90;5.30;;;;;;;3.84;100.00;96868.47;4968551;28;20070;-52
2022/01/20 01:39:35;;;;;;;5.97;5.40;;;;;;;3.76;100.00;96855.88;4969576;28;20078;-53
2022/01/20 01:42:30;;;;;;;5.90;5.30;;;;;;;3.81;100.00;96859.03;4965729;28;20062;-51
2022/01/20 01:45:06;;;;;;;7.10;4.68;;;;;;;3.77;100.00;96849.72;4966509;28;20077;-47
2022/01/20 01:47:35;;;;;;;6.45;5.65;;;;;;;3.80;100.00;96852.16;4969807;28;20062;-48
2022/01/20 01:50:04;;;;;;;6.10;5.10;;;;;;;3.84;100.00;96851.03;4971770;28;20525;-51
2022/01/20 01:52:33;;;;;;;5.53;4.57;;;;;;;3.79;100.00;96846.09;4971829;28;20070;-51
2022/01/20 01:55:03;;;;;;;6.63;5.68;;;;;;;3.81;100.00;96859.03;4967314;28;20074;-52
2022/01/20 01:57:32;;;;;;;5.40;4.72;;;;;;;3.75;100.00;96846.34;4967510;28;20073;-54
2022/01/20 02:00:00;;;;;;;5.57;5.00;;;;;;;3.83;100.00;96857.19;4973746;28;20186;-50
2022/01/20 02:02:29;;;;;;;5.05;4.57;;;;;;;3.78;100.00;96847.00;4965911;28;20077;-55
2022/01/20 02:04:58;;;;;;;5.35;4.85;;;;;;;3.92;100.00;96845.34;4964890;28;20097;-52
2022/01/20 02:07:51;;;;;;;5.53;5.03;;;;;;;3.93;100.00;96842.66;4989690;28;20070;-52
2022/01/20 02:18:45;;;;;;;5.22;4.65;;;;;;;3.91;100.00;96825.41;4961079;28;20545;-54
2022/01/20 02:21:17;;;;;;;5.30;4.47;;;;;;;3.77;100.00;96816.66;4969899;28;20062;-51
2022/01/20 02:23:48;;;;;;;6.78;4.78;;;;;;;3.81;100.00;96823.34;4968183;28;20404;-53
2022/01/20 02:26:17;;;;;;;4.97;4.45;;;;;;;3.84;100.00;96819.72;4967916;28;20070;-49
2022/01/20 02:28:46;;;;;;;5.32;4.82;;;;;;;3.84;100.00;96821.50;4961267;28;20460;-49
2022/01/20 02:31:15;;;;;;;4.80;4.30;;;;;;;3.74;100.00;96822.06;4968354;28;20090;-50
2022/01/20 02:33:44;;;;;;;4.45;4.10;;;;;;;3.69;100.00;96813.69;4966891;28;20066;-49
2022/01/20 02:36:19;;;;;;;4.78;4.20;;;;;;;3.75;100.00;96821.16;4964759;28;20074;-50
2022/01/20 02:38:56;;;;;;;5.30;4.80;;;;;;;3.71;100.00;96816.19;4967140;28;20059;-50
2022/01/20 02:46:57;;;;;;;4.80;4.30;;;;;;;3.59;100.00;96811.72;4967470;28;20509;-54
2022/01/20 02:49:26;;;;;;;5.45;4.55;;;;;;;3.63;100.00;96810.63;4967671;28;20079;-52
2022/01/20 02:51:56;;;;;;;5.72;5.13;;;;;;;3.59;100.00;96804.75;4967137;28;20067;-51
2022/01/20 02:54:26;;;;;;;6.15;5.10;;;;;;;3.62;100.00;96811.56;4979586;28;20137;-50
2022/01/20 02:56:55;;;;;;;5.57;5.05;;;;;;;3.57;100.00;96788.34;4962290;28;20062;-47
2022/01/20 02:59:23;;;;;;;4.80;4.35;;;;;;;3.51;100.00;96796.53;4968005;28;20062;-49
2022/01/20 03:01:52;;;;;;;4.90;4.50;;;;;;;3.48;100.00;96808.00;4968933;28;20497;-49
2022/01/20 03:04:24;;;;;;;5.00;4.57;;;;;;;3.43;100.00;96773.53;4969756;28;20584;-54
2022/01/20 03:06:53;;;;;;;6.72;5.15;;;;;;;3.30;100.00;96763.03;4980105;28;20075;-54
2022/01/20 03:09:21;;;;;;;5.45;4.57;;;;;;;3.24;100.00;96792.06;4969439;28;20091;-49
2022/01/20 03:11:51;;;;;;;6.18;4.90;;;;;;;3.24;100.00;96792.06;4967694;28;20085;-49
2022/01/20 03:14:20;;;;;;;4.85;4.45;;;;;;;3.02;100.00;96783.81;4964520;28;20073;-52
2022/01/20 03:16:49;;;;;;;5.28;4.78;;;;;;;3.05;100.00;96805.31;4967239;28;20082;-48
2022/01/20 03:19:18;;;;;;;6.20;5.03;;;;;;;3.19;100.00;96794.09;4972540;28;20545;-51
2022/01/20 03:21:47;;;;;;;6.07;4.90;;;;;;;3.08;100.00;96794.72;4966774;28;20078;-49
2022/01/20 03:24:15;;;;;;;5.55;5.05;;;;;;;3.10;100.00;96792.06;4966907;28;20082;-53
2022/01/20 03:26:44;;;;;;;5.32;4.82;;;;;;;3.10;100.00;96792.06;4962518;28;20074;-50
2022/01/20 03:29:14;;;;;;;5.55;5.00;;;;;;;3.24;100.00;96806.88;4971634;28;20261;-53
2022/01/20 03:31:42;;;;;;;6.18;4.55;;;;;;;3.00;100.00;96809.16;4968866;28;20488;-50
2022/01/20 03:34:11;;;;;;;5.47;4.93;;;;;;;2.83;100.00;96807.53;4968991;28;20082;-50
2022/01/20 03:36:40;;;;;;;5.25;4.68;;;;;;;2.80;100.00;96816.34;4963553;28;20525;-51
2022/01/20 03:39:08;;;;;;;6.22;5.63;;;;;;;2.79;100.00;96821.66;4968093;28;20075;-52
2022/01/20 03:41:36;;;;;;;5.57;5.03;;;;;;;2.73;100.00;96811.56;4970321;28;20074;-48
2022/01/20 03:44:06;;;;;;;5.82;5.22;;;;;;;2.73;100.00;96811.56;4966892;28;20542;-52
2022/01/20 03:46:36;;;;;;;5.35;4.65;;;;;;;2.77;100.00;96823.50;4967284;28;20067;-49
2022/01/20 03:49:09;;;;;;;6.10;4.78;;;;;;;2.52;100.00;96830.09;4968813;28;20078;-49
2022/01/20 03:51:38;;;;;;;6.05;5.50;;;;;;;2.68;100.00;96830.03;4962969;28;20075;-49
2022/01/20 03:54:07;;;;;;;5.95;5.35;;;;;;;2.69;100.00;96830.91;4960338;28;20071;-48
2022/01/20 03:56:35;;;;;;;5.82;4.80;;;;;;;2.67;100.00;96832.75;4955482;28;20085;-52
2022/01/20 03:59:04;;;;;;;7.18;6.45;;;;;;;2.50;100.00;96831.94;4962421;28;20632;-48
2022/01/20 04:01:32;;;;;;;5.40;4.90;;;;;;;2.50;100.00;96844.94;4967299;28;20075;-52
2022/01/20 04:04:02;;;;;;;9.13;5.50;;;;;;;2.54;100.00;96832.59;4964560;28;20092;-47
2022/01/20 04:06:31;;;;;;;5.88;5.28;;;;;;;2.51;100.00;96823.22;4961941;28;20066;-50
2022/01/20 04:09:00;;;;;;;5.57;5.07;;;;;;;2.44;100.00;96829.66;4965718;28;20081;-50
2022/01/20 04:11:29;;;;;;;5.50;4.95;;;;;;;2.44;100.00;96827.06;4968575;28;20074;-54
2022/01/20 04:13:58;;;;;;;6.55;5.70;;;;;;;2.47;100.00;96839.06;4965362;28;20066;-49
2022/01/20 04:16:34;;;;;;;7.18;5.72;;;;;;;2.35;100.00;96840.59;4968376;28;20085;-49
2022/01/20 04:19:07;;;;;;;6.88;6.15;;;;;;;2.41;100.00;96842.00;4967025;28;20465;-51
2022/01/20 04:21:37;;;;;;;5.70;5.13;;;;;;;2.31;100.00;96837.34;4967115;28;20066;-51
2022/01/20 04:24:07;;;;;;;6.38;5.75;;;;;;;2.18;100.00;96822.47;4965354;28;20079;-48
2022/01/20 04:26:38;;;;;;;6.50;5.63;;;;;;;2.17;100.00;96818.19;4968239;28;20082;-50
2022/01/20 04:29:08;;;;;;;6.28;5.30;;;;;;;2.13;100.00;96826.19;4966725;28;20085;-51
2022/01/20 04:31:37;;;;;;;6.00;5.43;;;;;;;2.13;100.00;96820.97;4969029;28;20485;-51
2022/01/20 04:34:09;;;;;;;5.32;4.60;;;;;;;2.17;100.00;96824.25;4974855;28;21423;-54
2022/01/20 04:36:41;;;;;;;4.85;4.40;;;;;;;2.12;100.00;96824.47;4967592;28;20085;-54
2022/01/20 04:39:13;;;;;;;6.35;5.75;;;;;;;2.01;100.00;96828.59;4961970;28;20522;-52
2022/01/20 04:41:41;;;;;;;5.68;5.13;;;;;;;2.04;100.00;96823.22;4959936;28;20086;-48
2022/01/20 04:44:15;;;;;;;6.82;5.82;;;;;;;1.99;100.00;96835.63;4965161;28;20117;-48
2022/01/20 04:46:51;;;;;;;6.90;6.20;;;;;;;2.12;100.00;96828.84;4960157;28;20540;-53
2022/01/20 04:57:40;;;;;;;7.28;5.82;;;;;;;2.10;100.00;96841.94;4971330;28;20085;-52
2022/01/20 05:00:09;;;;;;;6.30;4.82;;;;;;;2.09;100.00;96842.00;4969526;28;20081;-50
2022/01/20 05:02:38;;;;;;;5.40;4.93;;;;;;;1.98;100.00;96829.59;4965455;28;20074;-52
2022/01/20 05:05:09;;;;;;;5.78;5.10;;;;;;;1.99;100.00;96833.03;4970412;28;20559;-47
2022/01/20 05:07:37;;;;;;;7.47;5.57;;;;;;;2.00;100.00;96824.31;4975728;28;20528;-51
2022/01/20 05:10:08;;;;;;;6.63;5.90;;;;;;;2.11;100.00;96832.38;4967978;28;20070;-50
2022/01/20 05:13:00;;;;;;;6.57;5.07;;;;;;;2.07;100.00;96834.31;4969089;28;20474;-47
2022/01/20 05:15:26;;;;;;;9.23;6.75;;;;;;;2.21;100.00;96824.91;4967329;28;20103;-54
2022/01/20 05:17:55;;;;;;;5.80;5.20;;;;;;;2.06;100.00;96822.19;4972073;28;20073;-49
2022/01/20 05:20:25;;;;;;;10.05;5.95;;;;;;;2.11;100.00;96832.38;4968472;28;20085;-56
2022/01/20 05:22:54;;;;;;;5.40;4.90;;;;;;;2.23;100.00;96825.66;4970269;28;20089;-49
2022/01/20 05:25:22;;;;;;;8.55;5.65;;;;;;;2.02;100.00;96825.91;4975549;28;20109;-52
2022/01/20 05:27:50;;;;;;;6.75;6.15;;;;;;;2.14;100.00;96812.25;4965927;28;20058;-51
2022/01/20 05:30:19;;;;;;;5.78;5.28;;;;;;;2.09;100.00;96824.63;4964674;28;20124;-50
2022/01/20 05:32:47;;;;;;;5.43;4.78;;;;;;;2.01;100.00;96818.19;4970362;28;20075;-50
2022/01/20 05:35:16;;;;;;;5.72;5.22;;;;;;;2.12;100.00;96816.66;4967832;28;20059;-48
2022/01/20 05:37:46;;;;;;;5.68;5.18;;;;;;;2.06;100.00;96816.16;4967068;28;20481;-45
2022/01/20 05:40:14;;;;;;;6.68;5.70;;;;;;;2.08;100.00;96809.13;4971351;28;20079;-47
2022/01/20 05:42:43;;;;;;;6.95;5.50;;;;;;;2.11;100.00;96803.75;4964492;28;20066;-54
2022/01/20 05:45:13;;;;;;;6.75;5.82;;;;;;;2.20;100.00;96818.00;4966030;28;20107;-50
2022/01/20 05:47:45;;;;;;;7.10;6.40;;;;;;;2.13;100.00;96813.16;4964926;28;20066;-55
2022/01/20 05:50:18;;;;;;;7.57;5.65;;;;;;;2.16;100.00;96817.34;4967325;28;20074;-52
2022/01/20 05:52:48;;;;;;;5.88;5.28;;;;;;;2.14;100.00;96812.25;4970485;28;20082;-49
2022/01/20 05:55:20;;;;;;;7.40;5.65;;;;;;;2.22;100.00;96819.63;4968468;28;20089;-50
2022/01/20 05:57:48;;;;;;;5.60;5.10;;;;;;;2.24;100.00;96824.75;4969339;28;20039;-51
2022/01/20 06:00:20;;;;;;;5.70;5.15;;;;;;;2.27;100.00;96827.16;4968139;28;20476;-49
2022/01/20 06:05:35;;;;;;;5.68;5.18;;;;;;;2.29;100.00;96820.94;4961768;28;20077;-52
2022/01/20 06:08:05;;;;;;;7.70;5.95;;;;;;;2.28;100.00;96821.88;4964893;28;20098;-50
2022/01/20 06:10:34;;;;;;;6.60;5.57;;;;;;;2.31;100.00;96813.06;4967109;28;20074;-50
2022/01/20 06:13:02;;;;;;;5.47;4.97;;;;;;;2.35;100.00;96806.78;4962319;28;20470;-51
2022/01/20 06:15:31;;;;;;;6.60;5.88;;;;;;;2.28;100.00;96826.25;4962496;28;20069;-49
2022/01/20 06:18:00;;;;;;;5.55;4.72;;;;;;;2.21;100.00;96817.09;4969551;28;20066;-50
2022/01/20 06:20:29;;;;;;;6.72;6.05;;;;;;;2.35;100.00;96828.44;4963196;28;20074;-52
2022/01/20 06:22:58;;;;;;;6.88;5.95;;;;;;;2.31;100.00;96826.94;4960201;28;20098;-51
2022/01/20 06:25:33;;;;;;;5.97;5.45;;;;;;;2.24;100.00;96825.59;4960985;28;20479;-54
2022/01/20 06:28:02;;;;;;;8.60;5.72;;;;;;;2.39;100.00;96842.09;4954501;28;20522;-50
2022/01/20 06:30:32;;;;;;;6.30;5.70;;;;;;;2.39;100.00;96823.88;4961144;28;20592;-50
2022/01/20 06:33:01;;;;;;;6.68;6.00;;;;;;;2.40;100.00;96835.13;4960856;28;20073;-45
2022/01/20 06:35:29;;;;;;;7.35;5.80;;;;;;;2.43;100.00;96833.19;4961458;28;20529;-52
2022/01/20 06:37:58;;;;;;;6.93;6.28;;;;;;;2.47;100.00;96831.25;4963386;28;20548;-53
2022/01/20 06:40:27;;;;;;;6.72;6.03;;;;;;;2.44;100.00;96816.66;4962973;28;20572;-49
2022/01/20 06:42:57;;;;;;;6.85;6.03;;;;;;;2.44;100.00;96816.66;4960100;28;20073;-47
2022/01/20 06:45:26;;;;;;;5.55;5.05;;;;;;;2.43;100.00;96809.78;4959166;28;20661;-51
2022/01/20 06:47:54;;;;;;;6.82;5.72;;;;;;;2.53;100.00;96820.50;4969121;28;20622;-51
2022/01/20 06:50:23;;;;;;;7.50;5.68;;;;;;;2.44;100.00;96821.03;4968662;28;20066;-48
2022/01/20 06:52:52;;;;;;;6.65;5.70;;;;;;;2.53;100.00;96823.94;4965437;28;20089;-52
2022/01/20 06:55:21;;;;;;;9.02;6.05;;;;;;;2.37;100.00;96828.31;4972992;28;20081;-49
2022/01/20 06:57:49;;;;;;;6.75;6.05;;;;;;;2.52;100.00;96813.63;4968036;28;20070;-52
2022/01/20 07:00:22;;;;;;;7.45;6.53;;;;;;;2.52;100.00;96832.69;4967069;28;20085;-50
2022/01/20 07:02:51;;;;;;;7.32;5.45;;;;;;;2.48;100.00;96825.13;4963442;28;20069;-49
2022/01/20 07:05:22;;;;;;;8.07;7.18;;;;;;;2.50;100.00;96820.69;4972089;28;20078;-52
2022/01/20 07:07:50;;;;;;;;;;;;;;;2.45;100.00;96800.13;4969811;28;20078;-51
2022/01/20 07:10:20;;;;;;;5.57;4.97;;;;;;;2.51;100.00;96807.59;4964618;28;20424;-50
2022/01/20 07:12:50;;;;;;;6.03;5.47;;;;;;;2.50;100.00;96811.09;4962467;28;20067;-48
2022/01/20 07:15:20;;;;;;;7.97;6.32;;;;;;;2.44;100.00;96816.66;4965849;28;20544;-53
2022/01/20 07:17:49;;;;;;;7.20;6.47;;;;;;;2.54;100.00;96823.00;4963333;28;20063;-51
2022/01/20 07:20:18;;;;;;;6.93;6.20;;;;;;;2.60;100.00;96827.88;4961969;28;20059;-51
2022/01/20 07:22:49;;;;;;;6.30;5.70;;;;;;;2.61;100.00;96828.72;4965244;28;20082;-52
2022/01/20 07:25:17;;;;;;;6.38;5.50;;;;;;;2.56;100.00;96829.00;4966690;28;20097;-48
2022/01/20 07:27:46;;;;;;;7.15;6.43;;;;;;;2.62;100.00;96822.59;4961488;28;20081;-52
2022/01/20 07:30:32;;;;;;;5.63;5.03;;;;;;;2.58;100.00;96829.75;4962050;28;20074;-47
2022/01/20 07:33:05;;;;;;;6.60;5.95;;;;;;;2.53;100.00;96818.75;4967069;28;20544;-51
2022/01/20 07:35:35;;;;;;;6.93;6.03;;;;;;;2.72;100.00;96844.59;4963174;28;20105;-49
2022/01/20 07:38:04;;;;;;;6.95;5.78;;;;;;;2.71;100.00;96842.91;4961944;28;20082;-52
2022/01/20 07:40:34;;;;;;;6.18;5.55;;;;;;;2.76;100.00;96840.88;4964215;28;20082;-49
2022/01/20 07:43:03;;;;;;;6.13;5.60;;;;;;;2.74;100.00;96850.53;4970142;28;20340;-50
2022/01/20 07:45:34;;;;;;;5.53;5.00;;;;;;;2.74;100.00;96858.34;4966044;28;20074;-46
2022/01/20 07:48:02;;;;;;;5.65;5.15;;;;;;;2.70;100.00;96866.44;4967245;28;20691;-49
2022/01/20 07:50:31;;;;;;;5.65;5.15;;;;;;;2.74;100.00;96854.91;4963271;28;20078;-51
2022/01/20 07:52:59;;;;;;;5.80;5.30;;;;;;;2.94;100.00;96852.00;4967218;28;20075;-53
2022/01/20 07:55:28;;;;;;;5.80;5.22;;;;;;;2.83;100.00;96860.44;4967891;28;20529;-49
2022/01/20 07:57:56;;;;;;;5.40;4.90;;;;;;;2.82;100.00;96856.16;4966482;28;20059;-49
2022/01/20 08:00:25;;;;;;;5.78;5.28;;;;;;;2.86;100.00;96862.03;4968686;28;20078;-49
2022/01/20 08:02:55;;;;;;;5.70;5.20;;;;;;;2.84;100.00;96848.25;4964961;28;20094;-52
2022/01/20 08:05:23;;;;;;;5.55;4.68;;;;;;;2.87;100.00;96863.72;4966133;28;20548;-52
2022/01/20 08:07:52;;;;;;;7.03;5.45;;;;;;;2.95;100.00;96871.91;4972157;28;20079;-56
2022/01/20 08:10:21;;;;;;;5.32;4.82;;;;;;;2.81;100.00;96877.06;4968040;28;20070;-50
2022/01/20 08:12:49;;;;;;;5.50;5.00;;;;;;;2.80;100.00;96880.63;4965626;28;20083;-46
2022/01/20 08:15:18;;;;;;;5.82;5.22;;;;;;;2.89;100.00;96858.41;4965877;28;20549;-52
2022/01/20 08:17:47;;;;;;;5.45;4.95;;;;;;;2.95;100.00;96871.06;4970382;28;20074;-53
2022/01/20 08:20:17;;;;;;;6.03;5.43;;;;;;;2.79;100.00;96858.09;4965648;28;20478;-48
2022/01/20 08:22:45;;;;;;;5.35;4.85;;;;;;;3.14;100.00;96870.88;4965528;28;20109;-53
2022/01/20 08:25:19;;;;;;;5.38;4.88;;;;;;;3.16;100.00;96867.22;4968605;28;20082;-52
2022/01/20 08:27:49;;;;;;;5.18;4.68;;;;;;;3.19;100.00;96880.09;4967716;28;20066;-51
2022/01/20 08:30:20;;;;;;;6.63;5.35;;;;;;;3.24;100.00;96879.84;4969171;28;20062;-52
2022/01/20 08:32:49;;;;;;;5.15;4.65;;;;;;;3.33;100.00;96887.94;4965490;28;20066;-54
2022/01/20 08:35:21;;;;;;;5.85;4.85;;;;;;;2.77;100.00;96879.00;4966375;28;20063;-55
2022/01/20 08:37:49;;;;;;;6.05;5.45;;;;;;;3.01;100.00;96882.00;4972245;28;20082;-52
2022/01/20 08:40:22;;;;;;;5.32;4.28;;;;;;;2.96;100.00;96886.63;4968847;28;20170;-54
2022/01/20 08:42:52;;;;;;;6.82;6.22;;;;;;;3.02;100.00;96886.25;4963244;28;20046;-51
2022/01/20 08:45:23;;;;;;;5.85;4.53;;;;;;;2.99;100.00;96878.63;4968048;28;20082;-50
2022/01/20 08:47:54;;;;;;;6.65;5.95;;;;;;;3.08;100.00;96892.91;4964004;28;20069;-54
2022/01/20 08:50:25;;;;;;;6.38;4.90;;;;;;;2.89;100.00;96913.97;4966279;28;20069;-54
2022/01/20 08:52:54;;;;;;;6.07;5.03;;;;;;;3.04;100.00;96917.47;4965306;28;20082;-51
2022/01/20 08:55:26;;;;;;;5.18;4.68;;;;;;;3.02;100.00;96901.91;4970606;28;20085;-54
2022/01/20 08:57:55;;;;;;;5.22;4.72;;;;;;;3.04;100.00;96909.66;4964167;28;20069;-51
2022/01/20 09:00:26;;;;;;;5.22;4.82;;;;;;;2.94;100.00;96893.69;4965276;28;20066;-52
2022/01/20 09:02:55;;;;;;;5.00;4.50;;;;;;;2.97;100.00;96909.16;4967335;28;20081;-54
2022/01/20 09:05:26;;;;;;;5.55;5.03;;;;;;;2.85;100.00;96915.88;4966606;28;20109;-51
2022/01/20 09:07:54;;;;;;;4.93;4.53;;;;;;;2.99;100.00;96922.06;4963988;28;20077;-48
2022/01/20 09:10:23;;;;;;;5.20;4.78;;;;;;;2.77;100.00;96905.06;4967225;28;20478;-52
2022/01/20 09:15:40;;;;;;;4.68;4.28;;;;;;;2.85;100.00;96900.25;4965478;28;20070;-50
2022/01/20 09:18:10;;;;;;;4.30;3.90;;;;;;;2.86;100.00;96911.53;4964693;28;20066;-50
2022/01/20 09:20:40;;;;;;;4.93;4.43;;;;;;;2.81;100.00;96909.16;4966146;28;20054;-52
2022/01/20 09:23:09;;;;;;;4.88;4.47;;;;;;;2.82;100.00;96904.78;4965445;28;20082;-47
2022/01/20 09:25:39;;;;;;;5.88;5.28;;;;;;;3.14;100.00;96917.78;4963420;28;20458;-51
2022/01/20 09:28:08;;;;;;;5.03;4.57;;;;;;;3.14;100.00;96923.00;4967466;28;20089;-50
2022/01/20 09:30:39;;;;;;;4.38;4.00;;;;;;;3.18;100.00;96912.28;4972741;28;20066;-50
2022/01/20 09:33:14;;;;;;;5.00;4.32;;;;;;;3.47;100.00;96907.16;4963548;28;20461;-49
2022/01/20 09:35:45;;;;;;;6.20;4.43;;;;;;;3.32;100.00;96921.94;4962743;28;20074;-51
2022/01/20 09:38:15;;;;;;;4.88;4.47;;;;;;;3.50;100.00;96920.84;4965845;28;20062;-50
2022/01/20 09:40:44;;;;;;;4.65;4.18;;;;;;;3.51;100.00;96925.16;4966628;28;20070;-50
2022/01/20 09:43:15;;;;;;;5.18;4.78;;;;;;;3.24;100.00;96908.50;4966157;28;20086;-54
2022/01/20 09:45:45;;;;;;;5.50;4.18;;;;;;;3.49;100.00;96921.78;4959279;28;20074;-54
2022/01/20 09:48:15;;;;;;;4.93;4.50;;;;;;;3.75;100.00;96915.03;4966670;28;20074;-49
2022/01/20 09:50:46;;;;;;;5.55;4.55;;;;;;;4.00;100.00;96916.19;4962479;28;20063;-49
2022/01/20 09:53:15;;;;;;;5.10;4.63;;;;;;;4.35;100.00;96921.00;4965329;28;20480;-47
2022/01/20 09:55:44;;;;;;;4.70;4.30;;;;;;;4.04;100.00;96917.66;4963222;28;20082;-48
2022/01/20 09:58:14;;;;;;;;;;;;;;;4.19;100.00;96934.97;4967703;28;20067;-49
2022/01/20 10:00:45;;;;;;;4.45;4.05;;;;;;;4.04;100.00;96933.31;4948125;28;19954;-49
2022/01/20 10:03:15;;;;;;;8.20;3.90;;;;;;;4.20;100.00;96933.25;4957101;28;20316;-53
2022/01/20 10:05:48;;;;;;;4.40;4.00;;;;;;;4.13;100.00;96921.47;4962659;28;20074;-51
2022/01/20 10:08:18;;;;;;;4.43;4.10;;;;;;;4.12;100.00;96933.69;4968398;28;20066;-50
2022/01/20 10:10:48;;;;;;;6.05;4.47;;;;;;;3.94;100.00;96919.97;4962747;28;20082;-53
2022/01/20 10:13:21;;;;;;;4.40;4.00;;;;;;;3.89;100.00;96918.56;4964410;28;20078;-50
2022/01/20 10:16:01;;;;;;;5.32;4.90;;;;;;;3.94;100.00;96921.75;4965855;28;20513;-50
2022/01/20 10:18:31;;;;;;;4.63;4.22;;;;;;;3.88;100.00;96919.50;4965716;28;20038;-47
2022/01/20 10:21:02;;;;;;;4.90;4.50;;;;;;;3.99;100.00;96927.53;4962792;28;20058;-51
2022/01/20 10:23:35;;;;;;;6.53;4.43;;;;;;;3.87;100.00;96934.31;4963877;28;20635;-54
2022/01/20 10:26:09;;;;;;;4.00;3.70;;;;;;;3.81;100.00;96919.88;4965508;28;20576;-47
2022/01/20 10:28:51;;;;;;;4.43;4.03;;;;;;;3.91;100.00;96893.25;4968022;28;20088;-53
2022/01/20 10:31:34;;;;;;;4.00;3.60;;;;;;;3.87;100.00;96917.84;4970126;28;20089;-52
2022/01/20 10:34:04;;;;;;;4.78;4.38;;;;;;;3.99;100.00;96931.00;4963580;28;20159;-55
2022/01/20 10:36:39;;;;;;;6.78;5.10;;;;;;;3.97;100.00;96939.84;4965887;28;20085;-52
2022/01/20 10:39:08;;;;;;;5.47;4.68;;;;;;;3.80;100.00;96946.06;4963480;28;20077;-50
2022/01/20 10:41:38;;;;;;;4.30;3.90;;;;;;;4.06;100.00;96944.50;4962916;28;20509;-50
2022/01/20 10:44:09;;;;;;;6.00;5.03;;;;;;;4.14;100.00;96933.59;4965864;28;20080;-55
2022/01/20 10:46:50;;;;;;;5.10;4.60;;;;;;;4.18;100.00;96937.69;4966302;28;20066;-55
2022/01/20 10:49:19;;;;;;;5.38;4.28;;;;;;;4.16;100.00;96922.13;4963173;28;20294;-54
2022/01/20 10:52:04;;;;;;;4.10;3.78;;;;;;;4.12;100.00;96923.25;4945356;28;20556;-53
2022/01/20 10:54:38;;;;;;;6.22;4.38;;;;;;;4.19;100.00;96903.66;4961759;28;20461;-50
2022/01/20 10:57:08;;;;;;;3.97;3.67;;;;;;;4.22;100.00;96911.31;4970240;28;20076;-50
2022/01/20 10:59:49;;;;;;;4.15;3.75;;;;;;;4.24;100.00;96899.00;4965410;28;20062;-52
2022/01/20 11:02:19;;;;;;;4.40;4.00;;;;;;;4.00;100.00;96917.00;4958665;28;20078;-51
2022/01/20 11:04:48;;;;;;;5.22;4.28;;;;;;;4.25;100.00;96910.28;4973474;28;20519;-50
2022/01/20 11:07:18;;;;;;;4.60;4.20;;;;;;;4.33;100.00;96897.59;4971742;28;20138;-54
2022/01/20 11:09:51;;;;;;;4.35;3.95;;;;;;;4.27;100.00;96898.81;4964767;28;20584;-53
2022/01/20 11:12:20;;;;;;;5.85;4.07;;;;;;;4.33;100.00;96886.31;4973507;28;20057;-49
2022/01/20 11:14:51;;;;;;;4.60;4.20;;;;;;;4.47;100.00;96889.75;4971858;28;20481;-53
2022/01/20 11:17:20;;;;;;;3.80;3.50;;;;;;;4.31;100.00;96890.81;4969204;28;20066;-53
2022/01/20 11:19:49;;;;;;;5.45;4.70;;;;;;;4.57;100.00;96869.09;4968075;28;20078;-51
2022/01/20 11:22:20;;;;;;;4.68;4.28;;;;;;;4.42;100.00;96870.91;4980189;28;20066;-51
2022/01/20 11:24:58;;;;;;;5.82;4.22;;;;;;;4.51;100.00;96859.06;4975520;28;20082;-48
2022/01/20 11:27:38;;;;;;;5.03;4.05;;;;;;;4.60;100.00;96849.78;4970631;28;20529;-51
2022/01/20 11:30:15;;;;;;;4.53;4.10;;;;;;;5.00;100.00;96877.63;4969180;28;20070;-55
2022/01/20 11:32:46;;;;;;;4.20;3.80;;;;;;;5.15;100.00;96872.34;4975610;28;20054;-55
2022/01/20 11:35:18;;;;;;;4.65;3.80;;;;;;;5.13;100.00;96866.38;4976440;28;20070;-50
2022/01/20 11:37:57;;;;;;;5.22;4.03;;;;;;;5.50;100.00;96850.84;4971961;28;20078;-51
2022/01/20 11:40:26;;;;;;;6.40;3.90;;;;;;;5.56;100.00;96853.03;4980855;28;20086;-56
2022/01/20 11:43:03;;;;;;;3.50;3.17;;;;;;;5.24;100.00;96832.50;4978812;28;20749;-53
2022/01/20 11:45:33;;;;;;;4.03;3.63;;;;;;;5.14;100.00;96847.97;4972232;28;20073;-52
2022/01/20 11:48:13;;;;;;;5.65;3.65;;;;;;;5.22;100.00;96842.22;4968269;28;20074;-48
2022/01/20 11:50:43;;;;;;;8.55;4.13;;;;;;;4.94;100.00;96823.13;4967188;28;20494;-53
2022/01/20 11:53:15;;;;;;;5.55;4.10;;;;;;;5.08;100.00;96819.63;4977502;28;20516;-53
2022/01/20 11:55:46;;;;;;;4.60;3.67;;;;;;;4.85;100.00;96823.75;4966982;28;20062;-55
2022/01/20 11:58:20;;;;;;;4.10;3.70;;;;;;;4.85;100.00;96822.91;4975774;28;20525;-55
2022/01/20 12:01:00;;;;;;;3.70;3.40;;;;;;;4.79;100.00;96820.72;4970486;28;20524;-53
2022/01/20 12:03:31;;;;;;;5.10;3.58;;;;;;;4.64;100.00;96822.53;4971560;28;20077;-52
2022/01/20 12:06:00;;;;;;;5.60;3.92;;;;;;;4.48;100.00;96810.47;4969777;28;20580;-50
2022/01/20 12:08:30;;;;;;;4.95;3.60;;;;;;;4.48;100.00;96825.31;4987729;28;20065;-50
2022/01/20 12:11:01;;;;;;;4.47;4.07;;;;;;;4.42;100.00;96794.34;4976320;28;20074;-49
2022/01/20 12:13:31;;;;;;;4.22;3.83;;;;;;;4.65;100.00;96806.78;4969262;28;20521;-50
2022/01/20 12:16:01;;;;;;;4.47;3.95;;;;;;;4.92;100.00;96800.66;4968264;28;20482;-54
2022/01/20 12:18:32;;;;;;;7.28;3.70;;;;;;;5.35;100.00;96816.94;4968317;28;20078;-48
2022/01/20 12:21:04;;;;;;;6.63;3.55;;;;;;;4.95;100.00;96808.28;4974893;28;20074;-50
2022/01/20 12:23:42;;;;;;;3.92;3.42;;;;;;;4.98;100.00;96793.25;4965628;28;20063;-53
2022/01/20 12:26:11;;;;;;;4.38;3.08;;;;;;;4.96;100.00;96795.16;4960906;28;20070;-56
2022/01/20 12:28:40;;;;;;;11.10;3.55;;;;;;;4.77;100.00;96786.84;4970884;28;20085;-55
2022/01/20 12:31:11;;;;;;;3.78;3.30;;;;;;;4.47;100.00;96821.00;4975922;28;20089;-49
2022/01/20 12:33:45;;;;;;;5.05;3.30;;;;;;;4.24;100.00;96809.41;4965183;28;20062;-53
2022/01/20 12:36:14;;;;;;;7.95;3.80;;;;;;;4.25;100.00;96764.09;4964622;28;20058;-48
2022/01/20 12:38:47;;;;;;;3.95;3.15;;;;;;;4.43;100.00;96796.84;4979508;28;20054;-48
2022/01/20 12:41:17;;;;;;;3.47;3.17;;;;;;;4.77;100.00;96807.72;4965888;28;20070;-52